sensor_id;sensor_type;location;lat;lon;timestamp;P1;durP1;ratioP1;P2;durP2;ratioP2
31262;SDS011;17892;52.080;9.006;2023-07-29T00:02:07;2.28;;;0.90;;
31262;SDS011;17892;52.080;9.006;2023-07-29T00:04:33;1.55;;;0.88;;
31262;SDS011;17892;52.080;9.006;2023-07-29T00:06:59;1.63;;;0.80;;
31262;SDS011;17892;52.080;9.006;2023-07-29T00:09:24;1.83;;;0.70;;
31262;SDS011;17892;52.080;9.006;2023-07-29T00:11:50;3.00;;;0.90;;
31262;SDS011;17892;52.080;9.006;2023-07-29T00:14:16;1.80;;;1.00;;
31262;SDS011;17892;52.080;9.006;2023-07-29T00:16:41;1.80;;;0.90;;
31262;SDS011;17892;52.080;9.006;2023-07-29T00:19:08;2.03;;;0.90;;
31262;SDS011;17892;52.080;9.006;2023-07-29T00:21:33;3.53;;;1.30;;
31262;SDS011;17892;52.080;9.006;2023-07-29T00:23:59;1.63;;;0.82;;
31262;SDS011;17892;52.080;9.006;2023-07-29T00:26:26;1.90;;;0.90;;
31262;SDS011;17892;52.080;9.006;2023-07-29T00:28:54;1.85;;;1.00;;
31262;SDS011;17892;52.080;9.006;2023-07-29T00:31:23;1.92;;;0.98;;
31262;SDS011;17892;52.080;9.006;2023-07-29T00:33:49;2.17;;;0.90;;
31262;SDS011;17892;52.080;9.006;2023-07-29T00:36:15;2.30;;;1.08;;
31262;SDS011;17892;52.080;9.006;2023-07-29T00:38:41;1.83;;;0.85;;
31262;SDS011;17892;52.080;9.006;2023-07-29T00:41:06;2.58;;;1.00;;
31262;SDS011;17892;52.080;9.006;2023-07-29T00:43:33;2.25;;;1.10;;
31262;SDS011;17892;52.080;9.006;2023-07-29T00:45:59;2.42;;;0.98;;
31262;SDS011;17892;52.080;9.006;2023-07-29T00:48:25;1.65;;;0.70;;
31262;SDS011;17892;52.080;9.006;2023-07-29T00:50:51;3.45;;;0.90;;
31262;SDS011;17892;52.080;9.006;2023-07-29T00:53:17;2.08;;;0.98;;
31262;SDS011;17892;52.080;9.006;2023-07-29T00:55:43;2.58;;;0.98;;
31262;SDS011;17892;52.080;9.006;2023-07-29T00:58:10;2.53;;;1.13;;
31262;SDS011;17892;52.080;9.006;2023-07-29T01:00:35;2.58;;;1.27;;
31262;SDS011;17892;52.080;9.006;2023-07-29T01:03:01;2.25;;;1.15;;
31262;SDS011;17892;52.080;9.006;2023-07-29T01:05:30;2.70;;;1.10;;
31262;SDS011;17892;52.080;9.006;2023-07-29T01:08:06;2.13;;;1.00;;
31262;SDS011;17892;52.080;9.006;2023-07-29T01:11:04;2.20;;;1.00;;
31262;SDS011;17892;52.080;9.006;2023-07-29T01:16:31;1.48;;;0.77;;
31262;SDS011;17892;52.080;9.006;2023-07-29T01:22:28;2.47;;;1.00;;
31262;SDS011;17892;52.080;9.006;2023-07-29T01:24:56;2.65;;;1.20;;
31262;SDS011;17892;52.080;9.006;2023-07-29T01:27:23;2.50;;;1.00;;
31262;SDS011;17892;52.080;9.006;2023-07-29T01:29:49;2.50;;;1.08;;
31262;SDS011;17892;52.080;9.006;2023-07-29T01:32:17;1.92;;;1.02;;
31262;SDS011;17892;52.080;9.006;2023-07-29T01:35:03;2.38;;;1.25;;
31262;SDS011;17892;52.080;9.006;2023-07-29T01:38:13;2.78;;;1.20;;
31262;SDS011;17892;52.080;9.006;2023-07-29T01:40:44;2.83;;;1.27;;
31262;SDS011;17892;52.080;9.006;2023-07-29T01:43:10;1.95;;;0.98;;
31262;SDS011;17892;52.080;9.006;2023-07-29T01:45:37;2.00;;;0.95;;
31262;SDS011;17892;52.080;9.006;2023-07-29T01:48:04;2.25;;;1.17;;
31262;SDS011;17892;52.080;9.006;2023-07-29T01:50:31;4.25;;;1.20;;
31262;SDS011;17892;52.080;9.006;2023-07-29T01:52:59;2.22;;;1.05;;
31262;SDS011;17892;52.080;9.006;2023-07-29T01:55:25;3.10;;;1.52;;
31262;SDS011;17892;52.080;9.006;2023-07-29T01:57:51;2.28;;;1.02;;
31262;SDS011;17892;52.080;9.006;2023-07-29T02:00:20;2.60;;;1.10;;
31262;SDS011;17892;52.080;9.006;2023-07-29T02:02:46;1.92;;;0.95;;
31262;SDS011;17892;52.080;9.006;2023-07-29T02:05:12;2.30;;;1.27;;
31262;SDS011;17892;52.080;9.006;2023-07-29T02:07:38;2.30;;;1.17;;
31262;SDS011;17892;52.080;9.006;2023-07-29T02:10:03;4.75;;;1.65;;
31262;SDS011;17892;52.080;9.006;2023-07-29T02:12:30;2.50;;;1.33;;
31262;SDS011;17892;52.080;9.006;2023-07-29T02:14:55;2.67;;;1.10;;
31262;SDS011;17892;52.080;9.006;2023-07-29T02:17:21;2.40;;;1.30;;
31262;SDS011;17892;52.080;9.006;2023-07-29T02:19:47;3.13;;;1.20;;
31262;SDS011;17892;52.080;9.006;2023-07-29T02:22:13;2.50;;;1.25;;
31262;SDS011;17892;52.080;9.006;2023-07-29T02:24:42;2.30;;;1.30;;
31262;SDS011;17892;52.080;9.006;2023-07-29T02:27:07;3.55;;;1.42;;
31262;SDS011;17892;52.080;9.006;2023-07-29T02:29:33;2.70;;;1.42;;
31262;SDS011;17892;52.080;9.006;2023-07-29T02:31:59;1.98;;;1.05;;
31262;SDS011;17892;52.080;9.006;2023-07-29T02:34:25;2.28;;;1.15;;
31262;SDS011;17892;52.080;9.006;2023-07-29T02:36:51;2.80;;;1.52;;
31262;SDS011;17892;52.080;9.006;2023-07-29T02:39:17;2.15;;;1.13;;
31262;SDS011;17892;52.080;9.006;2023-07-29T02:41:42;2.08;;;1.30;;
31262;SDS011;17892;52.080;9.006;2023-07-29T02:44:08;3.17;;;1.40;;
31262;SDS011;17892;52.080;9.006;2023-07-29T02:46:34;2.30;;;1.17;;
31262;SDS011;17892;52.080;9.006;2023-07-29T02:49:01;2.85;;;1.23;;
31262;SDS011;17892;52.080;9.006;2023-07-29T02:51:28;2.63;;;1.20;;
31262;SDS011;17892;52.080;9.006;2023-07-29T02:53:54;2.55;;;1.23;;
31262;SDS011;17892;52.080;9.006;2023-07-29T02:56:20;2.35;;;1.15;;
31262;SDS011;17892;52.080;9.006;2023-07-29T02:58:46;2.40;;;1.20;;
31262;SDS011;17892;52.080;9.006;2023-07-29T03:01:11;2.40;;;1.17;;
31262;SDS011;17892;52.080;9.006;2023-07-29T03:03:37;2.67;;;1.20;;
31262;SDS011;17892;52.080;9.006;2023-07-29T03:06:08;2.08;;;1.00;;
31262;SDS011;17892;52.080;9.006;2023-07-29T03:08:36;2.55;;;1.05;;
31262;SDS011;17892;52.080;9.006;2023-07-29T03:11:06;2.20;;;1.10;;
31262;SDS011;17892;52.080;9.006;2023-07-29T03:13:33;2.30;;;1.10;;
31262;SDS011;17892;52.080;9.006;2023-07-29T03:16:09;1.92;;;0.93;;
31262;SDS011;17892;52.080;9.006;2023-07-29T03:18:41;1.95;;;1.10;;
31262;SDS011;17892;52.080;9.006;2023-07-29T03:21:08;2.08;;;1.10;;
31262;SDS011;17892;52.080;9.006;2023-07-29T03:23:35;3.03;;;1.35;;
31262;SDS011;17892;52.080;9.006;2023-07-29T03:26:02;2.42;;;1.25;;
31262;SDS011;17892;52.080;9.006;2023-07-29T03:28:39;2.40;;;1.20;;
31262;SDS011;17892;52.080;9.006;2023-07-29T03:31:08;2.30;;;1.25;;
31262;SDS011;17892;52.080;9.006;2023-07-29T03:33:35;2.00;;;1.10;;
31262;SDS011;17892;52.080;9.006;2023-07-29T03:36:01;2.70;;;1.45;;
31262;SDS011;17892;52.080;9.006;2023-07-29T03:38:27;2.53;;;1.40;;
31262;SDS011;17892;52.080;9.006;2023-07-29T03:40:53;2.80;;;1.35;;
31262;SDS011;17892;52.080;9.006;2023-07-29T03:43:18;2.72;;;1.20;;
31262;SDS011;17892;52.080;9.006;2023-07-29T03:45:44;3.55;;;1.83;;
31262;SDS011;17892;52.080;9.006;2023-07-29T03:48:10;2.70;;;1.27;;
31262;SDS011;17892;52.080;9.006;2023-07-29T03:50:36;2.45;;;1.25;;
31262;SDS011;17892;52.080;9.006;2023-07-29T03:53:03;2.42;;;1.38;;
31262;SDS011;17892;52.080;9.006;2023-07-29T03:55:29;2.28;;;1.20;;
31262;SDS011;17892;52.080;9.006;2023-07-29T03:57:56;3.47;;;1.17;;
31262;SDS011;17892;52.080;9.006;2023-07-29T04:00:23;3.08;;;1.35;;
31262;SDS011;17892;52.080;9.006;2023-07-29T04:02:49;2.80;;;1.20;;
31262;SDS011;17892;52.080;9.006;2023-07-29T04:05:15;3.92;;;1.30;;
31262;SDS011;17892;52.080;9.006;2023-07-29T04:07:41;3.20;;;1.33;;
31262;SDS011;17892;52.080;9.006;2023-07-29T04:10:07;2.42;;;1.23;;
31262;SDS011;17892;52.080;9.006;2023-07-29T04:12:33;2.97;;;1.20;;
31262;SDS011;17892;52.080;9.006;2023-07-29T04:14:59;3.38;;;1.30;;
31262;SDS011;17892;52.080;9.006;2023-07-29T04:17:24;3.22;;;1.13;;
31262;SDS011;17892;52.080;9.006;2023-07-29T04:19:50;2.40;;;1.10;;
31262;SDS011;17892;52.080;9.006;2023-07-29T04:22:16;2.42;;;1.33;;
31262;SDS011;17892;52.080;9.006;2023-07-29T04:24:42;4.50;;;1.58;;
31262;SDS011;17892;52.080;9.006;2023-07-29T04:27:08;2.40;;;1.20;;
31262;SDS011;17892;52.080;9.006;2023-07-29T04:29:34;3.20;;;1.40;;
31262;SDS011;17892;52.080;9.006;2023-07-29T04:32:01;3.92;;;1.80;;
31262;SDS011;17892;52.080;9.006;2023-07-29T04:34:28;2.78;;;1.33;;
31262;SDS011;17892;52.080;9.006;2023-07-29T04:36:54;2.63;;;1.20;;
31262;SDS011;17892;52.080;9.006;2023-07-29T04:39:19;2.70;;;1.27;;
31262;SDS011;17892;52.080;9.006;2023-07-29T04:41:45;2.10;;;1.10;;
31262;SDS011;17892;52.080;9.006;2023-07-29T04:44:11;2.15;;;1.08;;
31262;SDS011;17892;52.080;9.006;2023-07-29T04:46:37;2.60;;;1.23;;
31262;SDS011;17892;52.080;9.006;2023-07-29T04:49:03;2.90;;;1.50;;
31262;SDS011;17892;52.080;9.006;2023-07-29T04:51:31;2.10;;;1.23;;
31262;SDS011;17892;52.080;9.006;2023-07-29T04:53:57;2.53;;;1.33;;
31262;SDS011;17892;52.080;9.006;2023-07-29T04:56:23;3.05;;;1.65;;
31262;SDS011;17892;52.080;9.006;2023-07-29T04:58:50;6.57;;;1.65;;
31262;SDS011;17892;52.080;9.006;2023-07-29T05:01:15;2.88;;;1.42;;
31262;SDS011;17892;52.080;9.006;2023-07-29T05:03:41;2.40;;;1.30;;
31262;SDS011;17892;52.080;9.006;2023-07-29T05:06:07;2.90;;;1.73;;
31262;SDS011;17892;52.080;9.006;2023-07-29T05:08:33;2.78;;;1.50;;
31262;SDS011;17892;52.080;9.006;2023-07-29T05:10:58;2.75;;;1.40;;
31262;SDS011;17892;52.080;9.006;2023-07-29T05:13:24;2.28;;;1.20;;
31262;SDS011;17892;52.080;9.006;2023-07-29T05:15:50;2.70;;;1.30;;
31262;SDS011;17892;52.080;9.006;2023-07-29T05:18:16;2.78;;;1.40;;
31262;SDS011;17892;52.080;9.006;2023-07-29T05:20:42;2.67;;;1.50;;
31262;SDS011;17892;52.080;9.006;2023-07-29T05:23:08;2.30;;;1.27;;
31262;SDS011;17892;52.080;9.006;2023-07-29T05:25:34;2.70;;;1.45;;
31262;SDS011;17892;52.080;9.006;2023-07-29T05:28:03;3.28;;;1.60;;
31262;SDS011;17892;52.080;9.006;2023-07-29T05:30:29;2.53;;;1.25;;
31262;SDS011;17892;52.080;9.006;2023-07-29T05:33:02;3.10;;;1.65;;
31262;SDS011;17892;52.080;9.006;2023-07-29T05:35:32;2.70;;;1.40;;
31262;SDS011;17892;52.080;9.006;2023-07-29T05:37:58;2.65;;;1.33;;
31262;SDS011;17892;52.080;9.006;2023-07-29T05:40:24;2.83;;;1.60;;
31262;SDS011;17892;52.080;9.006;2023-07-29T05:42:49;3.15;;;1.52;;
31262;SDS011;17892;52.080;9.006;2023-07-29T05:45:15;2.70;;;1.60;;
31262;SDS011;17892;52.080;9.006;2023-07-29T05:47:41;3.00;;;1.70;;
31262;SDS011;17892;52.080;9.006;2023-07-29T05:50:07;3.03;;;1.30;;
31262;SDS011;17892;52.080;9.006;2023-07-29T05:52:33;2.97;;;1.60;;
31262;SDS011;17892;52.080;9.006;2023-07-29T05:54:59;2.85;;;1.50;;
31262;SDS011;17892;52.080;9.006;2023-07-29T05:57:26;3.13;;;1.50;;
31262;SDS011;17892;52.080;9.006;2023-07-29T05:59:53;2.97;;;1.35;;
31262;SDS011;17892;52.080;9.006;2023-07-29T06:02:19;2.78;;;1.50;;
31262;SDS011;17892;52.080;9.006;2023-07-29T06:04:45;2.85;;;1.33;;
31262;SDS011;17892;52.080;9.006;2023-07-29T06:07:10;2.83;;;1.55;;
31262;SDS011;17892;52.080;9.006;2023-07-29T06:09:36;2.83;;;1.40;;
31262;SDS011;17892;52.080;9.006;2023-07-29T06:12:02;2.60;;;1.35;;
31262;SDS011;17892;52.080;9.006;2023-07-29T06:14:28;4.15;;;1.40;;
31262;SDS011;17892;52.080;9.006;2023-07-29T06:16:54;2.90;;;1.30;;
31262;SDS011;17892;52.080;9.006;2023-07-29T06:19:20;3.10;;;1.63;;
31262;SDS011;17892;52.080;9.006;2023-07-29T06:21:46;3.03;;;1.33;;
31262;SDS011;17892;52.080;9.006;2023-07-29T06:24:12;3.00;;;1.73;;
31262;SDS011;17892;52.080;9.006;2023-07-29T06:26:37;2.50;;;1.40;;
31262;SDS011;17892;52.080;9.006;2023-07-29T06:29:03;2.70;;;1.67;;
31262;SDS011;17892;52.080;9.006;2023-07-29T06:31:29;3.67;;;1.65;;
31262;SDS011;17892;52.080;9.006;2023-07-29T06:33:55;3.00;;;1.38;;
31262;SDS011;17892;52.080;9.006;2023-07-29T06:36:21;2.63;;;1.42;;
31262;SDS011;17892;52.080;9.006;2023-07-29T06:38:47;2.30;;;1.30;;
31262;SDS011;17892;52.080;9.006;2023-07-29T06:41:12;2.67;;;1.50;;
31262;SDS011;17892;52.080;9.006;2023-07-29T06:43:38;2.47;;;1.40;;
31262;SDS011;17892;52.080;9.006;2023-07-29T06:46:04;3.08;;;1.05;;
31262;SDS011;17892;52.080;9.006;2023-07-29T06:48:30;2.65;;;1.40;;
31262;SDS011;17892;52.080;9.006;2023-07-29T06:50:55;2.60;;;1.40;;
31262;SDS011;17892;52.080;9.006;2023-07-29T06:53:25;3.03;;;1.40;;
31262;SDS011;17892;52.080;9.006;2023-07-29T06:55:52;2.33;;;1.40;;
31262;SDS011;17892;52.080;9.006;2023-07-29T06:58:18;4.30;;;1.35;;
31262;SDS011;17892;52.080;9.006;2023-07-29T07:00:44;2.35;;;1.27;;
31262;SDS011;17892;52.080;9.006;2023-07-29T07:03:10;2.95;;;1.60;;
31262;SDS011;17892;52.080;9.006;2023-07-29T07:05:35;2.20;;;1.20;;
31262;SDS011;17892;52.080;9.006;2023-07-29T07:08:01;3.13;;;1.33;;
31262;SDS011;17892;52.080;9.006;2023-07-29T07:10:27;2.88;;;1.33;;
31262;SDS011;17892;52.080;9.006;2023-07-29T07:12:53;2.13;;;1.10;;
31262;SDS011;17892;52.080;9.006;2023-07-29T07:15:19;2.42;;;1.30;;
31262;SDS011;17892;52.080;9.006;2023-07-29T07:17:45;2.90;;;1.40;;
31262;SDS011;17892;52.080;9.006;2023-07-29T07:20:11;2.80;;;1.27;;
31262;SDS011;17892;52.080;9.006;2023-07-29T07:22:37;2.88;;;1.35;;
31262;SDS011;17892;52.080;9.006;2023-07-29T07:25:02;2.22;;;1.25;;
31262;SDS011;17892;52.080;9.006;2023-07-29T07:27:29;2.75;;;1.13;;
31262;SDS011;17892;52.080;9.006;2023-07-29T07:29:54;2.10;;;1.10;;
31262;SDS011;17892;52.080;9.006;2023-07-29T07:32:20;2.88;;;1.55;;
31262;SDS011;17892;52.080;9.006;2023-07-29T07:34:46;3.03;;;1.15;;
31262;SDS011;17892;52.080;9.006;2023-07-29T07:37:12;3.00;;;1.20;;
31262;SDS011;17892;52.080;9.006;2023-07-29T07:39:37;3.88;;;2.05;;
31262;SDS011;17892;52.080;9.006;2023-07-29T07:42:03;3.13;;;1.50;;
31262;SDS011;17892;52.080;9.006;2023-07-29T07:44:29;2.38;;;1.50;;
31262;SDS011;17892;52.080;9.006;2023-07-29T07:46:55;3.20;;;1.55;;
31262;SDS011;17892;52.080;9.006;2023-07-29T07:49:21;2.92;;;1.88;;
31262;SDS011;17892;52.080;9.006;2023-07-29T07:51:47;2.40;;;1.38;;
31262;SDS011;17892;52.080;9.006;2023-07-29T07:54:13;3.55;;;2.33;;
31262;SDS011;17892;52.080;9.006;2023-07-29T07:56:39;4.35;;;3.05;;
31262;SDS011;17892;52.080;9.006;2023-07-29T07:59:04;4.30;;;2.88;;
31262;SDS011;17892;52.080;9.006;2023-07-29T08:01:39;5.72;;;3.80;;
31262;SDS011;17892;52.080;9.006;2023-07-29T08:04:05;5.20;;;3.85;;
31262;SDS011;17892;52.080;9.006;2023-07-29T08:06:31;6.47;;;4.70;;
31262;SDS011;17892;52.080;9.006;2023-07-29T08:08:57;5.55;;;4.32;;
31262;SDS011;17892;52.080;9.006;2023-07-29T08:11:23;7.10;;;5.03;;
31262;SDS011;17892;52.080;9.006;2023-07-29T08:13:49;8.32;;;6.07;;
31262;SDS011;17892;52.080;9.006;2023-07-29T08:16:15;6.93;;;5.35;;
31262;SDS011;17892;52.080;9.006;2023-07-29T08:18:41;8.30;;;6.65;;
31262;SDS011;17892;52.080;9.006;2023-07-29T08:21:07;8.07;;;6.57;;
31262;SDS011;17892;52.080;9.006;2023-07-29T08:23:33;9.52;;;7.60;;
31262;SDS011;17892;52.080;9.006;2023-07-29T08:26:01;9.85;;;7.53;;
31262;SDS011;17892;52.080;9.006;2023-07-29T08:28:36;8.95;;;7.22;;
31262;SDS011;17892;52.080;9.006;2023-07-29T08:31:04;10.20;;;8.10;;
31262;SDS011;17892;52.080;9.006;2023-07-29T08:33:30;9.75;;;7.25;;
31262;SDS011;17892;52.080;9.006;2023-07-29T08:35:58;11.45;;;7.88;;
31262;SDS011;17892;52.080;9.006;2023-07-29T08:38:24;10.52;;;7.45;;
31262;SDS011;17892;52.080;9.006;2023-07-29T08:46:28;7.70;;;6.60;;
31262;SDS011;17892;52.080;9.006;2023-07-29T08:48:54;7.05;;;5.88;;
31262;SDS011;17892;52.080;9.006;2023-07-29T08:51:20;7.85;;;6.40;;
31262;SDS011;17892;52.080;9.006;2023-07-29T08:53:48;7.75;;;6.95;;
31262;SDS011;17892;52.080;9.006;2023-07-29T08:56:15;7.45;;;5.53;;
31262;SDS011;17892;52.080;9.006;2023-07-29T08:58:41;5.80;;;4.90;;
31262;SDS011;17892;52.080;9.006;2023-07-29T09:01:08;5.25;;;4.10;;
31262;SDS011;17892;52.080;9.006;2023-07-29T09:03:33;4.88;;;3.95;;
31262;SDS011;17892;52.080;9.006;2023-07-29T09:05:59;5.93;;;3.83;;
31262;SDS011;17892;52.080;9.006;2023-07-29T09:08:27;4.15;;;3.30;;
31262;SDS011;17892;52.080;9.006;2023-07-29T09:10:54;3.65;;;2.67;;
31262;SDS011;17892;52.080;9.006;2023-07-29T09:13:20;3.92;;;2.80;;
31262;SDS011;17892;52.080;9.006;2023-07-29T09:15:46;4.60;;;2.72;;
31262;SDS011;17892;52.080;9.006;2023-07-29T09:18:16;4.05;;;2.33;;
31262;SDS011;17892;52.080;9.006;2023-07-29T09:20:48;3.45;;;2.55;;
31262;SDS011;17892;52.080;9.006;2023-07-29T09:23:15;3.63;;;2.45;;
31262;SDS011;17892;52.080;9.006;2023-07-29T09:25:41;4.15;;;2.60;;
31262;SDS011;17892;52.080;9.006;2023-07-29T09:28:16;3.65;;;2.60;;
31262;SDS011;17892;52.080;9.006;2023-07-29T09:30:43;2.97;;;2.28;;
31262;SDS011;17892;52.080;9.006;2023-07-29T09:33:11;3.30;;;2.42;;
31262;SDS011;17892;52.080;9.006;2023-07-29T09:35:37;3.15;;;2.20;;
31262;SDS011;17892;52.080;9.006;2023-07-29T09:38:06;2.90;;;2.15;;
31262;SDS011;17892;52.080;9.006;2023-07-29T09:40:36;2.80;;;1.52;;
31262;SDS011;17892;52.080;9.006;2023-07-29T09:43:04;2.83;;;2.20;;
31262;SDS011;17892;52.080;9.006;2023-07-29T09:45:32;2.50;;;1.80;;
31262;SDS011;17892;52.080;9.006;2023-07-29T09:47:59;3.15;;;1.80;;
31262;SDS011;17892;52.080;9.006;2023-07-29T09:50:26;2.75;;;1.80;;
31262;SDS011;17892;52.080;9.006;2023-07-29T09:52:53;2.70;;;1.90;;
31262;SDS011;17892;52.080;9.006;2023-07-29T09:55:23;2.45;;;1.65;;
31262;SDS011;17892;52.080;9.006;2023-07-29T09:58:00;2.55;;;1.77;;
31262;SDS011;17892;52.080;9.006;2023-07-29T10:00:29;2.90;;;1.77;;
31262;SDS011;17892;52.080;9.006;2023-07-29T10:02:57;2.40;;;1.40;;
31262;SDS011;17892;52.080;9.006;2023-07-29T10:05:25;2.05;;;1.20;;
31262;SDS011;17892;52.080;9.006;2023-07-29T10:07:52;2.25;;;1.00;;
31262;SDS011;17892;52.080;9.006;2023-07-29T10:10:20;1.83;;;0.90;;
31262;SDS011;17892;52.080;9.006;2023-07-29T10:12:46;1.55;;;0.77;;
31262;SDS011;17892;52.080;9.006;2023-07-29T10:15:12;4.22;;;0.90;;
31262;SDS011;17892;52.080;9.006;2023-07-29T10:17:39;1.70;;;0.70;;
31262;SDS011;17892;52.080;9.006;2023-07-29T10:20:06;1.55;;;0.68;;
31262;SDS011;17892;52.080;9.006;2023-07-29T10:25:09;1.15;;;0.65;;
31262;SDS011;17892;52.080;9.006;2023-07-29T10:27:55;1.48;;;0.70;;
31262;SDS011;17892;52.080;9.006;2023-07-29T10:30:26;1.58;;;0.60;;
31262;SDS011;17892;52.080;9.006;2023-07-29T10:32:53;1.10;;;0.60;;
31262;SDS011;17892;52.080;9.006;2023-07-29T10:35:23;1.60;;;0.77;;
31262;SDS011;17892;52.080;9.006;2023-07-29T10:37:50;1.15;;;0.60;;
31262;SDS011;17892;52.080;9.006;2023-07-29T10:40:18;1.02;;;0.50;;
31262;SDS011;17892;52.080;9.006;2023-07-29T10:45:37;1.17;;;0.55;;
31262;SDS011;17892;52.080;9.006;2023-07-29T10:48:05;1.10;;;0.50;;
31262;SDS011;17892;52.080;9.006;2023-07-29T10:50:39;1.70;;;0.52;;
31262;SDS011;17892;52.080;9.006;2023-07-29T10:53:05;1.40;;;0.73;;
31262;SDS011;17892;52.080;9.006;2023-07-29T10:55:34;1.73;;;0.65;;
31262;SDS011;17892;52.080;9.006;2023-07-29T10:58:04;1.38;;;0.63;;
31262;SDS011;17892;52.080;9.006;2023-07-29T11:00:45;1.25;;;0.60;;
31262;SDS011;17892;52.080;9.006;2023-07-29T11:03:12;1.45;;;0.60;;
31262;SDS011;17892;52.080;9.006;2023-07-29T11:05:48;1.48;;;0.63;;
31262;SDS011;17892;52.080;9.006;2023-07-29T11:08:16;1.80;;;0.70;;
31262;SDS011;17892;52.080;9.006;2023-07-29T11:11:07;1.13;;;0.60;;
31262;SDS011;17892;52.080;9.006;2023-07-29T11:13:37;2.25;;;0.50;;
31262;SDS011;17892;52.080;9.006;2023-07-29T11:16:04;0.98;;;0.47;;
31262;SDS011;17892;52.080;9.006;2023-07-29T11:18:31;1.33;;;0.60;;
31262;SDS011;17892;52.080;9.006;2023-07-29T11:20:59;1.20;;;0.57;;
31262;SDS011;17892;52.080;9.006;2023-07-29T11:23:31;1.33;;;0.70;;
31262;SDS011;17892;52.080;9.006;2023-07-29T11:26:02;1.55;;;0.60;;
31262;SDS011;17892;52.080;9.006;2023-07-29T11:28:28;0.73;;;0.40;;
31262;SDS011;17892;52.080;9.006;2023-07-29T11:30:55;1.45;;;0.57;;
31262;SDS011;17892;52.080;9.006;2023-07-29T11:33:22;1.58;;;0.65;;
31262;SDS011;17892;52.080;9.006;2023-07-29T11:35:50;1.58;;;0.50;;
31262;SDS011;17892;52.080;9.006;2023-07-29T11:38:17;0.88;;;0.40;;
31262;SDS011;17892;52.080;9.006;2023-07-29T11:40:55;1.40;;;0.52;;
31262;SDS011;17892;52.080;9.006;2023-07-29T11:43:23;0.82;;;0.43;;
31262;SDS011;17892;52.080;9.006;2023-07-29T11:45:49;0.90;;;0.40;;
31262;SDS011;17892;52.080;9.006;2023-07-29T11:48:16;1.08;;;0.40;;
31262;SDS011;17892;52.080;9.006;2023-07-29T11:50:42;1.17;;;0.50;;
31262;SDS011;17892;52.080;9.006;2023-07-29T11:53:09;0.93;;;0.40;;
31262;SDS011;17892;52.080;9.006;2023-07-29T11:55:36;1.30;;;0.55;;
31262;SDS011;17892;52.080;9.006;2023-07-29T11:58:02;1.27;;;0.40;;
31262;SDS011;17892;52.080;9.006;2023-07-29T12:00:28;1.17;;;0.40;;
31262;SDS011;17892;52.080;9.006;2023-07-29T12:02:54;0.75;;;0.30;;
31262;SDS011;17892;52.080;9.006;2023-07-29T12:05:21;1.10;;;0.50;;
31262;SDS011;17892;52.080;9.006;2023-07-29T12:07:48;1.42;;;0.47;;
31262;SDS011;17892;52.080;9.006;2023-07-29T12:10:14;0.90;;;0.47;;
31262;SDS011;17892;52.080;9.006;2023-07-29T12:12:46;0.93;;;0.40;;
31262;SDS011;17892;52.080;9.006;2023-07-29T12:15:25;0.95;;;0.38;;
31262;SDS011;17892;52.080;9.006;2023-07-29T12:17:53;1.90;;;0.40;;
31262;SDS011;17892;52.080;9.006;2023-07-29T12:20:21;1.33;;;0.55;;
31262;SDS011;17892;52.080;9.006;2023-07-29T12:22:51;1.52;;;0.50;;
31262;SDS011;17892;52.080;9.006;2023-07-29T12:25:22;1.13;;;0.40;;
31262;SDS011;17892;52.080;9.006;2023-07-29T12:27:48;1.02;;;0.40;;
31262;SDS011;17892;52.080;9.006;2023-07-29T12:30:14;1.13;;;0.50;;
31262;SDS011;17892;52.080;9.006;2023-07-29T12:32:49;1.38;;;0.50;;
31262;SDS011;17892;52.080;9.006;2023-07-29T12:37:40;1.05;;;0.43;;
31262;SDS011;17892;52.080;9.006;2023-07-29T12:40:29;0.70;;;0.32;;
31262;SDS011;17892;52.080;9.006;2023-07-29T12:42:54;1.35;;;0.55;;
31262;SDS011;17892;52.080;9.006;2023-07-29T12:45:20;0.77;;;0.40;;
31262;SDS011;17892;52.080;9.006;2023-07-29T12:47:48;1.30;;;0.60;;
31262;SDS011;17892;52.080;9.006;2023-07-29T12:50:14;1.48;;;0.57;;
31262;SDS011;17892;52.080;9.006;2023-07-29T12:52:40;1.65;;;0.65;;
31262;SDS011;17892;52.080;9.006;2023-07-29T12:55:06;1.65;;;0.60;;
31262;SDS011;17892;52.080;9.006;2023-07-29T12:57:34;1.52;;;0.68;;
31262;SDS011;17892;52.080;9.006;2023-07-29T13:00:00;1.88;;;0.75;;
31262;SDS011;17892;52.080;9.006;2023-07-29T13:02:28;1.77;;;0.70;;
31262;SDS011;17892;52.080;9.006;2023-07-29T13:04:54;1.52;;;0.68;;
31262;SDS011;17892;52.080;9.006;2023-07-29T13:07:20;2.38;;;0.90;;
31262;SDS011;17892;52.080;9.006;2023-07-29T13:09:45;3.63;;;0.82;;
31262;SDS011;17892;52.080;9.006;2023-07-29T13:12:11;1.52;;;0.90;;
31262;SDS011;17892;52.080;9.006;2023-07-29T13:14:37;2.50;;;0.85;;
31262;SDS011;17892;52.080;9.006;2023-07-29T13:17:02;1.40;;;0.77;;
31262;SDS011;17892;52.080;9.006;2023-07-29T13:19:28;2.10;;;1.00;;
31262;SDS011;17892;52.080;9.006;2023-07-29T13:21:54;2.30;;;0.90;;
31262;SDS011;17892;52.080;9.006;2023-07-29T13:24:20;1.92;;;0.90;;
31262;SDS011;17892;52.080;9.006;2023-07-29T13:26:45;2.00;;;1.10;;
31262;SDS011;17892;52.080;9.006;2023-07-29T13:29:11;2.00;;;1.10;;
31262;SDS011;17892;52.080;9.006;2023-07-29T13:31:37;1.52;;;0.90;;
31262;SDS011;17892;52.080;9.006;2023-07-29T13:34:02;2.42;;;1.00;;
31262;SDS011;17892;52.080;9.006;2023-07-29T13:36:28;1.75;;;1.00;;
31262;SDS011;17892;52.080;9.006;2023-07-29T13:38:54;1.70;;;0.80;;
31262;SDS011;17892;52.080;9.006;2023-07-29T13:41:20;2.60;;;0.90;;
31262;SDS011;17892;52.080;9.006;2023-07-29T13:43:45;1.35;;;0.80;;
31262;SDS011;17892;52.080;9.006;2023-07-29T13:46:11;2.55;;;1.10;;
31262;SDS011;17892;52.080;9.006;2023-07-29T13:48:37;1.73;;;0.90;;
31262;SDS011;17892;52.080;9.006;2023-07-29T13:51:02;1.73;;;0.90;;
31262;SDS011;17892;52.080;9.006;2023-07-29T13:53:28;1.58;;;0.88;;
31262;SDS011;17892;52.080;9.006;2023-07-29T13:55:54;2.10;;;0.80;;
31262;SDS011;17892;52.080;9.006;2023-07-29T13:58:19;2.00;;;1.05;;
31262;SDS011;17892;52.080;9.006;2023-07-29T14:00:45;2.80;;;1.00;;
31262;SDS011;17892;52.080;9.006;2023-07-29T14:03:11;1.95;;;0.85;;
31262;SDS011;17892;52.080;9.006;2023-07-29T14:05:36;2.10;;;1.08;;
31262;SDS011;17892;52.080;9.006;2023-07-29T14:08:02;1.92;;;0.90;;
31262;SDS011;17892;52.080;9.006;2023-07-29T14:10:28;1.40;;;0.95;;
31262;SDS011;17892;52.080;9.006;2023-07-29T14:12:54;1.83;;;0.90;;
31262;SDS011;17892;52.080;9.006;2023-07-29T14:15:20;1.85;;;1.02;;
31262;SDS011;17892;52.080;9.006;2023-07-29T14:17:46;2.20;;;1.02;;
31262;SDS011;17892;52.080;9.006;2023-07-29T14:20:12;2.55;;;1.10;;
31262;SDS011;17892;52.080;9.006;2023-07-29T14:22:38;2.05;;;1.00;;
31262;SDS011;17892;52.080;9.006;2023-07-29T14:25:04;2.05;;;0.90;;
31262;SDS011;17892;52.080;9.006;2023-07-29T14:27:31;2.03;;;0.93;;
31262;SDS011;17892;52.080;9.006;2023-07-29T14:29:57;2.13;;;1.00;;
31262;SDS011;17892;52.080;9.006;2023-07-29T14:32:22;1.60;;;0.80;;
31262;SDS011;17892;52.080;9.006;2023-07-29T14:34:49;1.80;;;0.80;;
31262;SDS011;17892;52.080;9.006;2023-07-29T14:37:15;1.50;;;0.70;;
31262;SDS011;17892;52.080;9.006;2023-07-29T14:39:41;1.15;;;0.60;;
31262;SDS011;17892;52.080;9.006;2023-07-29T14:42:06;1.40;;;0.70;;
31262;SDS011;17892;52.080;9.006;2023-07-29T14:44:33;1.55;;;0.73;;
31262;SDS011;17892;52.080;9.006;2023-07-29T14:46:58;1.60;;;0.70;;
31262;SDS011;17892;52.080;9.006;2023-07-29T14:49:24;1.40;;;0.70;;
31262;SDS011;17892;52.080;9.006;2023-07-29T14:51:50;1.15;;;0.65;;
31262;SDS011;17892;52.080;9.006;2023-07-29T14:54:15;2.20;;;1.00;;
31262;SDS011;17892;52.080;9.006;2023-07-29T14:56:41;1.70;;;0.80;;
31262;SDS011;17892;52.080;9.006;2023-07-29T14:59:07;1.38;;;0.80;;
31262;SDS011;17892;52.080;9.006;2023-07-29T15:01:33;1.80;;;0.70;;
31262;SDS011;17892;52.080;9.006;2023-07-29T15:03:58;1.35;;;0.60;;
31262;SDS011;17892;52.080;9.006;2023-07-29T15:06:24;1.48;;;0.60;;
31262;SDS011;17892;52.080;9.006;2023-07-29T15:08:50;1.27;;;0.60;;